Time;durP1;ratioP1;P1;durP2;ratioP2;P2;SDS_P1;SDS_P2;PMS_P1;PMS_P2;Temp;Humidity;BMP_temperature;BMP_pressure;BME280_temperature;BME280_humidity;BME280_pressure;Samples;Min_cycle;Max_cycle;Signal;HPM_P1;HPM_P2
2023/08/05 00:01:28;;;;;;;;;;;;;;;14.85;100.00;96417.69;5066852;28;19938;-70
2023/08/05 00:03:54;;;;;;;;;;;;;;;14.84;100.00;96416.06;5066332;28;19938;-78
2023/08/05 00:06:20;;;;;;;;;;;;;;;14.82;100.00;96419.78;5066137;28;19947;-78
2023/08/05 00:08:46;;;;;;;;;;;;;;;14.81;100.00;96414.72;5066154;28;19935;-78
2023/08/05 00:11:12;;;;;;;;;;;;;;;14.81;100.00;96420.00;5066108;28;19965;-78
2023/08/05 00:13:37;;;;;;;;;;;;;;;14.80;100.00;96426.31;5066017;28;19956;-78
2023/08/05 00:16:06;;;;;;;;;;;;;;;14.80;100.00;96431.59;5066003;28;19937;-78
2023/08/05 00:18:32;;;;;;;;;;;;;;;14.79;100.00;96420.25;5066470;28;19940;-77
2023/08/05 00:20:58;;;;;;;;;;;;;;;14.79;100.00;96414.19;5065952;28;19947;-70
2023/08/05 00:23:23;;;;;;;;;;;;;;;14.76;100.00;96422.56;5065888;28;20137;-72
2023/08/05 00:25:49;;;;;;;;;;;;;;;14.75;100.00;96423.63;5081406;28;19934;-72
2023/08/05 00:28:15;;;;;;;;;;;;;;;14.75;100.00;96429.69;5066524;28;20228;-72
2023/08/05 00:30:41;;;;;;;;;;;;;;;14.74;100.00;96419.38;5065719;28;19941;-72
2023/08/05 00:33:07;;;;;;;;;;;;;;;14.72;100.00;96424.91;5065586;28;19950;-72
2023/08/05 00:35:33;;;;;;;;;;;;;;;14.72;100.00;96413.53;5066210;28;19948;-72
2023/08/05 00:37:59;;;;;;;;;;;;;;;14.73;100.00;96413.31;5065168;28;19934;-76
2023/08/05 00:40:24;;;;;;;;;;;;;;;14.72;100.00;96417.00;5066081;28;19942;-70
2023/08/05 00:42:50;;;;;;;;;;;;;;;14.71;100.00;96414.59;5066321;28;19945;-70
2023/08/05 00:45:16;;;;;;;;;;;;;;;14.69;100.00;96412.19;5065490;28;19946;-70
2023/08/05 00:47:42;;;;;;;;;;;;;;;14.68;100.00;96413.25;5065393;28;19932;-70
2023/08/05 00:50:08;;;;;;;;;;;;;;;14.67;100.00;96410.84;5065308;28;19943;-70
2023/08/05 00:52:35;;;;;;;;;;;;;;;14.65;100.00;96405.81;5065270;28;20148;-70
2023/08/05 00:55:01;;;;;;;;;;;;;;;14.65;100.00;96403.16;5065233;28;19943;-70
2023/08/05 00:57:27;;;;;;;;;;;;;;;14.64;100.00;96398.16;5063878;28;19968;-72
2023/08/05 00:59:53;;;;;;;;;;;;;;;14.64;100.00;96393.66;5065235;28;19987;-77
2023/08/05 01:02:19;;;;;;;;;;;;;;;14.61;100.00;96379.13;5065118;28;20238;-77
2023/08/05 01:04:45;;;;;;;;;;;;;;;14.60;100.00;96387.28;5065637;28;19936;-77
2023/08/05 01:07:11;;;;;;;;;;;;;;;14.58;100.00;96381.44;5064991;28;19949;-77
2023/08/05 01:09:37;;;;;;;;;;;;;;;14.56;100.00;96380.91;5065040;28;19934;-77
2023/08/05 01:12:04;;;;;;;;;;;;;;;14.54;100.00;96378.47;5064874;28;19938;-77
2023/08/05 01:14:31;;;;;;;;;;;;;;;14.53;100.00;96378.69;5064815;28;19961;-69
2023/08/05 01:16:57;;;;;;;;;;;;;;;14.50;100.00;96382.63;5064894;28;19944;-69
2023/08/05 01:19:24;;;;;;;;;;;;;;;14.48;100.00;96383.94;5064890;28;19943;-69
2023/08/05 01:21:50;;;;;;;;;;;;;;;14.45;100.00;96381.75;5064385;28;20076;-69
2023/08/05 01:24:24;;;;;;;;;;;;;;;14.43;100.00;96391.78;5064714;28;20268;-69
2023/08/05 01:26:51;;;;;;;;;;;;;;;14.39;100.00;96389.63;5065003;28;19944;-70
2023/08/05 01:29:17;;;;;;;;;;;;;;;14.37;100.00;96396.19;5064621;28;19937;-69
2023/08/05 01:31:45;;;;;;;;;;;;;;;14.34;100.00;96386.09;5065424;28;20118;-69
2023/08/05 01:34:11;;;;;;;;;;;;;;;14.31;100.00;96384.75;5064510;28;20256;-68
2023/08/05 01:36:37;;;;;;;;;;;;;;;14.27;100.00;96388.91;5065367;28;19939;-69
2023/08/05 01:39:03;;;;;;;;;;;;;;;14.25;100.00;96380.44;5065236;28;19940;-69
2023/08/05 01:41:29;;;;;;;;;;;;;;;14.21;100.00;96389.88;5064419;28;19953;-68
2023/08/05 01:43:55;;;;;;;;;;;;;;;14.18;100.00;96388.53;5064369;28;19934;-69
2023/08/05 01:46:21;;;;;;;;;;;;;;;14.17;100.00;96394.88;5064373;28;19942;-68
2023/08/05 01:48:46;;;;;;;;;;;;;;;14.15;100.00;96390.84;5063959;28;19938;-69
2023/08/05 01:51:12;;;;;;;;;;;;;;;14.13;100.00;96396.38;5064286;28;20141;-69
2023/08/05 01:53:38;;;;;;;;;;;;;;;14.13;100.00;96399.03;5064980;28;20263;-77
2023/08/05 01:56:04;;;;;;;;;;;;;;;14.12;100.00;96391.34;5064152;28;19957;-72
2023/08/05 01:58:30;;;;;;;;;;;;;;;14.12;100.00;96399.25;5064040;28;19963;-74
2023/08/05 02:00:55;;;;;;;;;;;;;;;14.12;100.00;96392.13;5064164;28;19949;-72
2023/08/05 02:03:21;;;;;;;;;;;;;;;14.11;100.00;96387.91;5064179;28;19984;-71
2023/08/05 02:05:47;;;;;;;;;;;;;;;14.08;100.00;96383.09;5064133;28;19966;-71
2023/08/05 02:08:13;;;;;;;;;;;;;;;14.07;100.00;96378.88;5064036;28;19940;-72
2023/08/05 02:10:40;;;;;;;;;;;;;;;14.07;100.00;96376.25;5064059;28;20133;-72
2023/08/05 02:13:05;;;;;;;;;;;;;;;14.09;100.00;96382.09;5063896;28;19965;-69
2023/08/05 02:15:31;;;;;;;;;;;;;;;14.10;100.00;96382.88;5063900;28;19941;-69
2023/08/05 02:17:57;;;;;;;;;;;;;;;14.10;100.00;96374.97;5063937;28;19937;-71
2023/08/05 02:20:23;;;;;;;;;;;;;;;14.11;100.00;96371.28;5063948;28;19946;-70
2023/08/05 02:22:49;;;;;;;;;;;;;;;14.12;100.00;96371.03;5063890;28;19943;-69
2023/08/05 02:25:15;;;;;;;;;;;;;;;14.13;100.00;96364.75;5063905;28;19938;-69
2023/08/05 02:27:40;;;;;;;;;;;;;;;14.14;100.00;96363.69;5063869;28;19938;-69
2023/08/05 02:30:08;;;;;;;;;;;;;;;14.12;100.00;96357.84;5063854;28;19941;-70
2023/08/05 02:32:33;;;;;;;;;;;;;;;14.14;100.00;96358.41;5064076;28;19939;-72
2023/08/05 02:34:59;;;;;;;;;;;;;;;14.15;100.00;96357.38;5063709;28;20298;-72
2023/08/05 02:37:25;;;;;;;;;;;;;;;14.15;100.00;96357.38;5064576;28;20219;-72
2023/08/05 02:39:51;;;;;;;;;;;;;;;14.17;100.00;96346.56;5064270;28;19934;-72
2023/08/05 02:42:17;;;;;;;;;;;;;;;14.18;100.00;96346.34;5063675;28;19972;-72
2023/08/05 02:44:43;;;;;;;;;;;;;;;14.19;100.00;96344.50;5064206;28;20118;-71
2023/08/05 02:47:09;;;;;;;;;;;;;;;14.20;100.00;96335.56;5064209;28;20209;-70
2023/08/05 02:49:35;;;;;;;;;;;;;;;14.18;100.00;96343.69;5064277;28;19942;-69
2023/08/05 02:52:01;;;;;;;;;;;;;;;14.16;100.00;96337.88;5063630;28;19937;-69
2023/08/05 02:54:27;;;;;;;;;;;;;;;14.15;100.00;96346.84;5063569;28;19987;-68
2023/08/05 02:56:52;;;;;;;;;;;;;;;14.17;100.00;96351.84;5063509;28;19960;-69
2023/08/05 02:59:18;;;;;;;;;;;;;;;14.17;100.00;96339.47;5063430;28;19973;-69
2023/08/05 03:01:44;;;;;;;;;;;;;;;14.18;100.00;96341.06;5065044;28;19945;-68
2023/08/05 03:04:10;;;;;;;;;;;;;;;14.19;100.00;96337.41;5068175;28;19948;-69
2023/08/05 03:06:36;;;;;;;;;;;;;;;14.18;100.00;96330.50;5067385;28;20002;-77
2023/08/05 03:09:02;;;;;;;;;;;;;;;14.18;100.00;96332.34;5067365;28;19943;-70
2023/08/05 03:11:30;;;;;;;;;;;;;;;14.16;100.00;96342.34;5067299;28;19944;-69
2023/08/05 03:13:55;;;;;;;;;;;;;;;14.10;100.00;96344.09;5067166;28;19966;-69
2023/08/05 03:16:21;;;;;;;;;;;;;;;14.10;100.00;96359.13;5067233;28;19988;-69
2023/08/05 03:18:47;;;;;;;;;;;;;;;14.10;100.00;96370.47;5067205;28;19941;-69
2023/08/05 03:21:13;;;;;;;;;;;;;;;14.11;100.00;96372.09;5067078;28;19966;-69
2023/08/05 03:23:39;;;;;;;;;;;;;;;14.10;100.00;96385.50;5067068;28;19942;-72
2023/08/05 03:26:05;;;;;;;;;;;;;;;14.09;100.00;96379.44;5066692;28;19961;-69
2023/08/05 03:28:31;;;;;;;;;;;;;;;14.09;100.00;96378.63;5066960;28;19941;-69
2023/08/05 03:30:56;;;;;;;;;;;;;;;14.09;100.00;96386.53;5066910;28;19945;-69
2023/08/05 03:33:22;;;;;;;;;;;;;;;14.10;100.00;96390.78;5067342;28;20240;-69
2023/08/05 03:35:48;;;;;;;;;;;;;;;14.10;100.00;96388.94;5066852;28;20004;-69
2023/08/05 03:38:15;;;;;;;;;;;;;;;14.10;100.00;96388.94;5066748;28;19940;-68
2023/08/05 03:40:40;;;;;;;;;;;;;;;14.10;100.00;96393.41;5067280;28;19944;-69
2023/08/05 03:43:06;;;;;;;;;;;;;;;14.10;100.00;96393.41;5066692;28;19949;-70
2023/08/05 03:45:32;;;;;;;;;;;;;;;14.10;100.00;96399.50;5066693;28;19945;-72
2023/08/05 03:47:58;;;;;;;;;;;;;;;14.10;100.00;96406.59;5065552;28;19939;-71
2023/08/05 03:50:28;;;;;;;;;;;;;;;14.09;100.00;96405.00;5067331;28;19949;-71
2023/08/05 03:52:54;;;;;;;;;;;;;;;14.07;100.00;96402.63;5066438;28;19937;-71
2023/08/05 03:55:21;;;;;;;;;;;;;;;14.05;100.00;96406.50;5066122;28;19948;-72
2023/08/05 03:57:47;;;;;;;;;;;;;;;14.04;100.00;96404.94;5066471;28;19969;-72
2023/08/05 04:00:13;;;;;;;;;;;;;;;14.06;100.00;96410.75;5066913;28;19943;-75
2023/08/05 04:02:41;;;;;;;;;;;;;;;14.06;100.00;96408.91;5066416;28;20012;-72
2023/08/05 04:05:07;;;;;;;;;;;;;;;14.08;100.00;96408.69;5066813;28;19959;-71
2023/08/05 04:07:33;;;;;;;;;;;;;;;14.08;100.00;96419.22;5066253;28;20294;-71
2023/08/05 04:09:59;;;;;;;;;;;;;;;14.08;100.00;96421.88;5066696;28;19937;-73
2023/08/05 04:12:26;;;;;;;;;;;;;;;14.07;100.00;96421.06;5066401;28;20091;-71
2023/08/05 04:14:52;;;;;;;;;;;;;;;14.06;100.00;96418.69;5066046;28;20162;-71
2023/08/05 04:17:19;;;;;;;;;;;;;;;14.05;100.00;96409.16;5066062;28;19947;-71
2023/08/05 04:19:46;;;;;;;;;;;;;;;14.04;100.00;96418.13;5066035;28;19997;-71
2023/08/05 04:22:12;;;;;;;;;;;;;;;14.01;100.00;96416.75;5065934;28;19941;-68
2023/08/05 04:24:41;;;;;;;;;;;;;;;14.00;100.00;96415.16;5065927;28;19947;-68
2023/08/05 04:27:07;;;;;;;;;;;;;;;13.99;100.00;96403.81;5065841;28;20139;-69
2023/08/05 04:29:34;;;;;;;;;;;;;;;13.98;100.00;96404.88;5065844;28;19938;-69
2023/08/05 04:32:00;;;;;;;;;;;;;;;13.95;100.00;96405.31;5065763;28;19944;-69
2023/08/05 04:34:25;;;;;;;;;;;;;;;13.91;100.00;96409.47;5065659;28;19957;-68
2023/08/05 04:36:52;;;;;;;;;;;;;;;13.90;100.00;96409.72;5065713;28;19942;-73
2023/08/05 04:39:18;;;;;;;;;;;;;;;13.91;100.00;96406.06;5066434;28;19949;-69
2023/08/05 04:41:44;;;;;;;;;;;;;;;13.90;100.00;96407.06;5065600;28;20111;-76
2023/08/05 04:44:11;;;;;;;;;;;;;;;13.89;100.00;96406.28;5066062;28;19944;-77
2023/08/05 04:46:37;;;;;;;;;;;;;;;13.89;100.00;96408.91;5066029;28;19947;-76
2023/08/05 04:49:05;;;;;;;;;;;;;;;13.87;100.00;96418.13;5065425;28;19939;-77
2023/08/05 04:51:31;;;;;;;;;;;;;;;13.84;100.00;96413.31;5065398;28;19944;-76
2023/08/05 04:53:56;;;;;;;;;;;;;;;13.83;100.00;96409.09;5064709;28;20236;-76
2023/08/05 04:56:23;;;;;;;;;;;;;;;13.82;100.00;96418.84;5065261;28;19962;-69
2023/08/05 04:58:49;;;;;;;;;;;;;;;13.84;100.00;96432.56;5065332;28;19970;-71
2023/08/05 05:01:15;;;;;;;;;;;;;;;13.84;100.00;96429.94;5065185;28;19943;-72
2023/08/05 05:03:40;;;;;;;;;;;;;;;13.88;100.00;96436.34;5065207;28;20147;-71
2023/08/05 05:06:06;;;;;;;;;;;;;;;13.91;100.00;96435.06;5065098;28;19944;-72
2023/08/05 05:08:33;;;;;;;;;;;;;;;13.90;100.00;96441.34;5065093;28;19937;-72
2023/08/05 05:10:59;;;;;;;;;;;;;;;13.90;100.00;96450.09;5065012;28;19938;-72
2023/08/05 05:13:24;;;;;;;;;;;;;;;13.94;100.00;96438.03;5064908;28;20101;-72
2023/08/05 05:15:52;;;;;;;;;;;;;;;13.98;100.00;96435.69;5063820;28;20235;-67
2023/08/05 05:18:19;;;;;;;;;;;;;;;14.01;100.00;96443.13;5064851;28;19946;-72
2023/08/05 05:20:48;;;;;;;;;;;;;;;14.05;100.00;96438.16;5064865;28;19953;-71
2023/08/05 05:23:14;;;;;;;;;;;;;;;14.07;100.00;96436.91;5064658;28;19941;-72
2023/08/05 05:25:40;;;;;;;;;;;;;;;14.09;100.00;96434.81;5064196;28;19936;-71
2023/08/05 05:28:05;;;;;;;;;;;;;;;14.10;100.00;96444.31;5064722;28;19942;-72
2023/08/05 05:30:31;;;;;;;;;;;;;;;14.10;100.00;96443.53;5064698;28;19950;-72
2023/08/05 05:32:57;;;;;;;;;;;;;;;14.09;100.00;96439.28;5063477;28;20288;-69
2023/08/05 05:35:23;;;;;;;;;;;;;;;14.07;100.00;96434.25;5064539;28;19954;-68
2023/08/05 05:37:49;;;;;;;;;;;;;;;14.07;100.00;96436.91;5064541;28;19942;-67
2023/08/05 05:40:15;;;;;;;;;;;;;;;14.10;100.00;96446.16;5065004;28;19942;-68
2023/08/05 05:42:41;;;;;;;;;;;;;;;14.11;100.00;96442.47;5065027;28;20113;-68
2023/08/05 05:45:07;;;;;;;;;;;;;;;14.12;100.00;96436.19;5064461;28;19937;-68
2023/08/05 05:47:32;;;;;;;;;;;;;;;14.14;100.00;96437.53;5064448;28;19941;-67
2023/08/05 05:49:58;;;;;;;;;;;;;;;14.13;100.00;96432.47;5064318;28;19946;-67
2023/08/05 05:52:24;;;;;;;;;;;;;;;14.15;100.00;96433.03;5064352;28;19945;-69
2023/08/05 05:54:50;;;;;;;;;;;;;;;14.17;100.00;96436.25;5064792;28;19959;-71
2023/08/05 05:57:16;;;;;;;;;;;;;;;14.20;100.00;96433.94;5064231;28;19952;-72
2023/08/05 05:59:43;;;;;;;;;;;;;;;14.25;100.00;96430.56;5064091;28;20037;-71
2023/08/05 06:02:09;;;;;;;;;;;;;;;14.27;100.00;96423.22;5064155;28;19941;-72
2023/08/05 06:04:36;;;;;;;;;;;;;;;14.30;100.00;96432.47;5064173;28;19939;-72
2023/08/05 06:07:02;;;;;;;;;;;;;;;14.33;100.00;96422.25;5064647;28;19939;-72
2023/08/05 06:09:29;;;;;;;;;;;;;;;14.38;100.00;96427.59;5063755;28;19943;-69
2023/08/05 06:11:55;;;;;;;;;;;;;;;14.40;100.00;96425.53;5064099;28;19953;-76
2023/08/05 06:14:21;;;;;;;;;;;;;;;14.45;100.00;96423.97;5063915;28;19954;-76
2023/08/05 06:16:47;;;;;;;;;;;;;;;14.48;100.00;96424.28;5064538;28;19961;-76
2023/08/05 06:19:13;;;;;;;;;;;;;;;14.53;100.00;96420.91;5062765;28;20112;-76
2023/08/05 06:21:40;;;;;;;;;;;;;;;14.55;100.00;96417.06;5064759;28;19938;-76
2023/08/05 06:24:05;;;;;;;;;;;;;;;14.57;100.00;96416.78;5063880;28;20253;-76
2023/08/05 06:26:31;;;;;;;;;;;;;;;14.59;100.00;96410.25;5064711;28;19943;-76
2023/08/05 06:28:57;;;;;;;;;;;;;;;14.64;100.00;96403.44;5063937;28;19948;-70
2023/08/05 06:31:23;;;;;;;;;;;;;;;14.66;100.00;96401.31;5063855;28;19942;-69
2023/08/05 06:33:49;;;;;;;;;;;;;;;14.66;100.00;96402.16;5063897;28;19963;-68
2023/08/05 06:36:14;;;;;;;;;;;;;;;14.71;100.00;96406.69;5066240;28;19939;-69
2023/08/05 06:38:40;;;;;;;;;;;;;;;14.76;100.00;96398.81;5067893;28;20238;-68
2023/08/05 06:41:06;;;;;;;;;;;;;;;14.79;100.00;96401.78;5068668;28;19994;-69
2023/08/05 06:43:32;;;;;;;;;;;;;;;14.82;100.00;96403.13;5067794;28;19944;-68
2023/08/05 06:45:58;;;;;;;;;;;;;;;14.81;100.00;96391.75;5067786;28;19938;-71
2023/08/05 06:48:24;;;;;;;;;;;;;;;14.84;100.00;96393.09;5067714;28;19984;-70
2023/08/05 06:50:50;;;;;;;;;;;;;;;14.88;100.00;96385.50;5067699;28;19946;-70
2023/08/05 06:53:16;;;;;;;;;;;;;;;14.91;100.00;96388.47;5068099;28;19978;-70
2023/08/05 06:55:42;;;;;;;;;;;;;;;15.01;100.00;96382.47;5067507;28;20040;-70
2023/08/05 06:58:08;;;;;;;;;;;;;;;15.22;100.00;96379.03;5067922;28;20153;-70
2023/08/05 07:00:34;;;;;;;;;;;;;;;15.48;100.00;96379.25;5067800;28;20002;-70
2023/08/05 07:03:01;;;;;;;;;;;;;;;15.69;100.00;96388.16;5067567;28;19938;-70
2023/08/05 07:05:28;;;;;;;;;;;;;;;15.83;100.00;96381.44;5068284;28;20107;-71
2023/08/05 07:07:53;;;;;;;;;;;;;;;16.09;100.00;96389.56;5067455;28;19941;-67
2023/08/05 07:10:19;;;;;;;;;;;;;;;16.40;100.00;96395.06;5067923;28;19939;-67
2023/08/05 07:12:45;;;;;;;;;;;;;;;16.52;100.00;96382.41;5067372;28;20226;-67
2023/08/05 07:15:11;;;;;;;;;;;;;;;16.49;100.00;96372.34;5067225;28;19999;-68
2023/08/05 07:17:38;;;;;;;;;;;;;;;16.41;100.00;96388.69;5067296;28;20160;-67
2023/08/05 07:20:04;;;;;;;;;;;;;;;16.34;100.00;96398.72;5067678;28;19933;-68
2023/08/05 07:22:30;;;;;;;;;;;;;;;16.42;100.00;96400.88;5067439;28;19936;-68
2023/08/05 07:24:56;;;;;;;;;;;;;;;16.53;100.00;96384.00;5067633;28;19956;-72
2023/08/05 07:27:22;;;;;;;;;;;;;;;16.54;100.00;96398.81;5067030;28;19980;-71
2023/08/05 07:29:48;;;;;;;;;;;;;;;16.51;100.00;96399.34;5067577;28;19945;-71
2023/08/05 07:32:14;;;;;;;;;;;;;;;16.47;100.00;96406.22;5066976;28;19973;-72
2023/08/05 07:34:40;;;;;;;;;;;;;;;16.58;100.00;96397.25;5066827;28;19955;-72
2023/08/05 07:37:06;;;;;;;;;;;;;;;16.69;100.00;96395.44;5066872;28;20172;-72
2023/08/05 07:39:36;;;;;;;;;;;;;;;16.80;100.00;96383.06;5066785;28;19940;-72
2023/08/05 07:42:02;;;;;;;;;;;;;;;16.93;100.00;96382.63;5066559;28;19949;-75
2023/08/05 07:44:28;;;;;;;;;;;;;;;17.10;100.00;96376.31;5066738;28;19967;-72
2023/08/05 07:46:54;;;;;;;;;;;;;;;17.20;100.00;96368.41;5065727;28;19952;-72
2023/08/05 07:49:20;;;;;;;;;;;;;;;17.19;100.00;96367.56;5066652;28;20249;-72
2023/08/05 07:51:50;;;;;;;;;;;;;;;17.18;100.00;96384.56;5066566;28;19946;-72
2023/08/05 07:54:16;;;;;;;;;;;;;;;17.38;100.00;96375.84;5067010;28;19959;-72
2023/08/05 07:56:42;;;;;;;;;;;;;;;17.77;100.00;96363.94;5066469;28;19965;-72
2023/08/05 07:59:08;;;;;;;;;;;;;;;17.84;99.82;96351.22;5066400;28;19966;-72
2023/08/05 08:01:34;;;;;;;;;;;;;;;17.76;100.00;96352.53;5066473;28;19949;-69
2023/08/05 08:04:02;;;;;;;;;;;;;;;17.68;99.95;96354.91;5067231;28;19942;-76
2023/08/05 08:06:28;;;;;;;;;;;;;;;17.76;100.00;96357.81;5066302;28;19944;-76
2023/08/05 08:08:54;;;;;;;;;;;;;;;17.93;97.39;96338.22;5066576;28;19935;-76
2023/08/05 08:11:20;;;;;;;;;;;;;;;17.90;95.15;96328.94;5066119;28;19949;-76
2023/08/05 08:13:46;;;;;;;;;;;;;;;17.85;98.92;96353.63;5082533;28;20135;-76
2023/08/05 08:16:13;;;;;;;;;;;;;;;17.93;98.56;96346.19;5066634;28;19941;-76
2023/08/05 08:18:39;;;;;;;;;;;;;;;18.17;97.47;96341.91;5066048;28;19938;-70
2023/08/05 08:21:06;;;;;;;;;;;;;;;18.46;94.83;96314.75;5065999;28;19982;-73
2023/08/05 08:23:32;;;;;;;;;;;;;;;18.45;94.87;96313.94;5066420;28;19941;-73
2023/08/05 08:25:59;;;;;;;;;;;;;;;18.48;98.08;96339.19;5065862;28;19977;-73
2023/08/05 08:28:25;;;;;;;;;;;;;;;18.71;96.05;96324.47;5065815;28;20224;-73
2023/08/05 08:30:53;;;;;;;;;;;;;;;19.02;86.00;96260.56;5065834;28;19946;-73
2023/08/05 08:33:19;;;;;;;;;;;;;;;19.10;90.71;96285.75;5066472;28;20108;-73
2023/08/05 08:35:45;;;;;;;;;;;;;;;19.11;90.14;96285.50;5066153;28;19950;-67
2023/08/05 08:38:10;;;;;;;;;;;;;;;19.21;86.95;96269.47;5065709;28;19968;-72
2023/08/05 08:40:36;;;;;;;;;;;;;;;19.32;86.94;96275.50;5066122;28;19959;-69
2023/08/05 08:43:02;;;;;;;;;;;;;;;19.38;79.44;96202.59;5065584;28;20242;-69
2023/08/05 08:45:32;;;;;;;;;;;;;;;19.37;79.63;96218.81;5065582;28;20008;-69
2023/08/05 08:47:59;;;;;;;;;;;;;;;19.43;88.01;96263.72;5066252;28;20115;-70
2023/08/05 08:50:25;;;;;;;;;;;;;;;19.68;86.92;96272.53;5065441;28;19938;-69
2023/08/05 08:52:51;;;;;;;;;;;;;;;19.84;81.14;96231.44;5065463;28;19944;-69
2023/08/05 08:55:18;;;;;;;;;;;;;;;19.97;80.42;96232.63;5065753;28;19955;-70
2023/08/05 08:57:45;;;;;;;;;;;;;;;19.95;86.52;96282.69;5063865;28;19965;-75
2023/08/05 09:00:11;;;;;;;;;;;;;;;19.78;85.05;96269.00;5064506;28;19977;-75
2023/08/05 09:02:37;;;;;;;;;;;;;;;19.53;85.10;96270.00;5065224;28;19950;-75
2023/08/05 09:05:03;;;;;;;;;;;;;;;19.29;86.70;96283.25;5065189;28;19947;-75
2023/08/05 09:07:29;;;;;;;;;;;;;;;19.10;85.67;96267.94;5065426;28;20268;-73
2023/08/05 09:09:57;;;;;;;;;;;;;;;18.95;87.23;96278.69;5065875;28;19934;-75
2023/08/05 09:12:23;;;;;;;;;;;;;;;18.82;86.96;96280.09;5064988;28;20037;-72
2023/08/05 09:14:55;;;;;;;;;;;;;;;18.74;89.27;96296.56;5065681;28;19959;-69
2023/08/05 09:17:21;;;;;;;;;;;;;;;18.75;90.80;96300.81;5064907;28;19945;-72
2023/08/05 09:19:54;;;;;;;;;;;;;;;19.08;90.14;96295.88;5102781;28;19953;-72
2023/08/05 09:22:20;;;;;;;;;;;;;;;19.49;82.40;96248.50;5101737;28;19941;-72
2023/08/05 09:24:45;;;;;;;;;;;;;;;19.92;80.61;96242.53;5101712;28;19943;-71
2023/08/05 09:27:11;;;;;;;;;;;;;;;20.27;77.66;96198.75;5101673;28;19971;-72
2023/08/05 09:29:37;;;;;;;;;;;;;;;20.41;80.22;96233.44;5101624;28;19939;-72
2023/08/05 09:32:04;;;;;;;;;;;;;;;20.28;80.25;96227.75;5100521;28;19955;-75
2023/08/05 09:34:40;;;;;;;;;;;;;;;20.15;80.17;96227.63;5101546;28;20211;-74
2023/08/05 09:37:06;;;;;;;;;;;;;;;20.06;80.65;96230.13;5101657;28;19947;-75
2023/08/05 09:39:46;;;;;;;;;;;;;;;20.01;83.80;96249.63;5101344;28;19961;-75
2023/08/05 09:42:25;;;;;;;;;;;;;;;19.98;84.35;96255.50;5101934;28;20211;-74
2023/08/05 09:44:57;;;;;;;;;;;;;;;19.92;82.88;96243.31;5101365;28;19940;-75
2023/08/05 09:47:25;;;;;;;;;;;;;;;19.99;84.07;96242.97;5101353;28;19941;-74
2023/08/05 09:49:51;;;;;;;;;;;;;;;20.24;84.63;96247.22;5100754;28;19949;-71
2023/08/05 09:52:18;;;;;;;;;;;;;;;20.55;81.63;96222.88;5101312;28;19933;-68
2023/08/05 09:55:07;;;;;;;;;;;;;;;20.64;75.46;96174.03;5102000;28;19947;-69
2023/08/05 09:57:33;;;;;;;;;;;;;;;20.64;76.46;96167.88;5103224;28;19967;-68
2023/08/05 10:00:00;;;;;;;;;;;;;;;20.57;79.66;96199.41;5101053;28;19935;-68
2023/08/05 10:02:26;;;;;;;;;;;;;;;20.53;80.30;96199.19;5100959;28;19943;-69
2023/08/05 10:04:56;;;;;;;;;;;;;;;20.44;82.54;96222.22;5101015;28;19945;-68
2023/08/05 10:07:23;;;;;;;;;;;;;;;20.28;82.56;96217.09;5101743;28;19944;-67
2023/08/05 10:09:50;;;;;;;;;;;;;;;20.15;81.11;96209.78;5100802;28;19943;-68
2023/08/05 10:12:18;;;;;;;;;;;;;;;20.06;79.24;96193.66;5100746;28;19937;-71
2023/08/05 10:14:44;;;;;;;;;;;;;;;19.99;81.70;96211.84;5100753;28;19937;-71
2023/08/05 10:17:10;;;;;;;;;;;;;;;20.01;77.57;96166.31;5101577;28;19941;-71
2023/08/05 10:19:36;;;;;;;;;;;;;;;20.05;75.13;96146.84;5119161;28;19990;-71
2023/08/05 10:22:09;;;;;;;;;;;;;;;20.10;79.46;96195.78;5121078;28;19935;-71
2023/08/05 10:24:57;;;;;;;;;;;;;;;20.16;78.61;96190.09;5120995;28;19937;-72
2023/08/05 10:27:32;;;;;;;;;;;;;;;20.42;78.67;96184.44;5120981;28;19943;-78
2023/08/05 10:30:03;;;;;;;;;;;;;;;20.64;73.06;96135.91;5113521;28;19943;-72
2023/08/05 10:32:29;;;;;;;;;;;;;;;20.92;78.11;96158.16;5107716;28;19944;-72
2023/08/05 10:35:31;;;;;;;;;;;;;;;21.20;78.42;96164.34;5108025;28;20107;-71
2023/08/05 10:38:11;;;;;;;;;;;;;;;21.48;68.96;96089.72;5045108;28;20116;-71
2023/08/05 10:40:47;;;;;;;;;;;;;;;21.60;67.83;96166.63;5100102;28;19945;-71
2023/08/05 10:43:40;;;;;;;;;;;;;;;21.76;72.49;96185.81;5106915;28;19940;-71
2023/08/05 10:46:06;;;;;;;;;;;;;;;21.80;68.51;96171.56;5104432;28;19965;-69
2023/08/05 10:48:42;;;;;;;;;;;;;;;21.58;69.60;96174.91;5106857;28;20232;-68
2023/08/05 10:51:15;;;;;;;;;;;;;;;21.29;70.01;96191.94;5107079;28;19936;-67
2023/08/05 10:53:58;;;;;;;;;;;;;;;21.08;70.77;96199.47;5106767;28;20129;-68
2023/08/05 10:56:31;;;;;;;;;;;;;;;20.84;72.07;96204.91;5106940;28;19959;-68
2023/08/05 10:58:58;;;;;;;;;;;;;;;20.78;73.16;96210.59;5106554;28;19956;-68
2023/08/05 11:01:44;;;;;;;;;;;;;;;20.68;75.10;96220.34;5106627;28;19934;-67
2023/08/05 11:04:39;;;;;;;;;;;;;;;20.61;73.42;96211.88;5106409;28;19940;-77
2023/08/05 11:07:05;;;;;;;;;;;;;;;20.45;69.85;96187.31;5093567;28;19954;-68
2023/08/05 11:09:34;;;;;;;;;;;;;;;20.32;73.49;96204.00;5107189;28;20225;-69
2023/08/05 11:12:00;;;;;;;;;;;;;;;20.19;74.21;96210.03;5106438;28;19941;-68
2023/08/05 11:14:27;;;;;;;;;;;;;;;20.12;76.47;96207.72;5106337;28;19934;-68
2023/08/05 11:16:59;;;;;;;;;;;;;;;20.08;80.45;96228.00;5106295;28;20133;-69
2023/08/05 11:19:25;;;;;;;;;;;;;;;20.02;77.65;96208.63;5106149;28;20275;-68
2023/08/05 11:21:51;;;;;;;;;;;;;;;19.96;76.94;96215.06;5106103;28;19938;-78
2023/08/05 11:24:18;;;;;;;;;;;;;;;19.91;78.42;96220.47;5104943;28;20016;-80
2023/08/05 11:26:44;;;;;;;;;;;;;;;19.82;74.62;96191.03;5106256;28;19940;-82
2023/08/05 11:29:10;;;;;;;;;;;;;;;19.74;75.50;96188.97;5106058;28;19944;-81
2023/08/05 11:31:36;;;;;;;;;;;;;;;19.70;78.08;96200.41;5106023;28;19933;-82
2023/08/05 11:34:02;;;;;;;;;;;;;;;19.69;81.72;96223.56;5106033;28;19936;-83
2023/08/05 11:36:28;;;;;;;;;;;;;;;19.66;84.52;96219.59;5105933;28;19937;-83
2023/08/05 11:38:57;;;;;;;;;;;;;;;19.63;85.71;96222.84;5105823;28;19956;-82
2023/08/05 11:41:23;;;;;;;;;;;;;;;19.59;86.49;96218.34;5104874;28;19936;-79
2023/08/05 11:43:49;;;;;;;;;;;;;;;19.56;88.04;96221.59;5106570;28;19948;-69
2023/08/05 11:46:29;;;;;;;;;;;;;;;19.49;89.96;96221.91;5105726;28;20248;-69
2023/08/05 11:49:11;;;;;;;;;;;;;;;19.42;90.23;96210.78;5104514;28;19949;-69
2023/08/05 11:51:46;;;;;;;;;;;;;;;19.41;91.75;96206.56;5105601;28;19964;-69
2023/08/05 11:54:12;;;;;;;;;;;;;;;19.40;91.74;96205.78;5106382;28;19941;-69
2023/08/05 11:56:38;;;;;;;;;;;;;;;19.38;93.84;96213.25;5104265;28;19984;-69
2023/08/05 11:59:04;;;;;;;;;;;;;;;19.32;93.91;96203.72;5106000;28;20040;-69
2023/08/05 12:01:34;;;;;;;;;;;;;;;19.31;92.66;96194.13;5105447;28;19941;-68
2023/08/05 12:04:05;;;;;;;;;;;;;;;19.31;92.37;96202.13;5105385;28;19946;-67
2023/08/05 12:06:31;;;;;;;;;;;;;;;19.32;92.88;96198.41;5105381;28;19939;-68
2023/08/05 12:08:59;;;;;;;;;;;;;;;19.35;93.09;96189.84;5105306;28;20301;-67
2023/08/05 12:11:25;;;;;;;;;;;;;;;19.41;93.03;96188.72;5105238;28;20125;-68
2023/08/05 12:13:51;;;;;;;;;;;;;;;19.44;89.15;96158.94;5105720;28;19939;-68
2023/08/05 12:16:17;;;;;;;;;;;;;;;19.47;87.93;96155.69;5105193;28;19973;-67
2023/08/05 12:18:46;;;;;;;;;;;;;;;19.56;86.49;96152.44;5104893;28;19965;-69
2023/08/05 12:21:12;;;;;;;;;;;;;;;19.61;81.99;96126.56;5105009;28;19943;-67
2023/08/05 12:23:41;;;;;;;;;;;;;;;19.68;79.89;96120.91;5105021;28;19936;-68
2023/08/05 12:26:10;;;;;;;;;;;;;;;19.94;82.24;96131.25;5105006;28;19960;-68
2023/08/05 12:28:36;;;;;;;;;;;;;;;20.18;81.55;96123.22;5104986;28;20109;-68
2023/08/05 12:31:03;;;;;;;;;;;;;;;20.33;75.13;96098.28;5104913;28;19940;-68
2023/08/05 12:33:28;;;;;;;;;;;;;;;20.53;75.61;96099.84;5104853;28;19946;-68
2023/08/05 12:35:55;;;;;;;;;;;;;;;20.70;69.46;96078.00;5105619;28;19943;-83
2023/08/05 12:38:20;;;;;;;;;;;;;;;20.80;72.62;96099.16;5104783;28;20116;-69
2023/08/05 12:40:46;;;;;;;;;;;;;;;20.87;77.85;96132.38;5104703;28;19942;-70